Oppenheim, New York
Current Conditions -  °F | °C
As of 9:15 PM on Friday 19 Dec 2014 (Local Time) from KNY0 Reporting Station
Broken Clouds Broken Clouds  
Wind Chill: -10°   Ceiling: 1400
Heat Index: -6°   Visibility: 10mi
Dew Point: -9°   Wind: 6mph
Humidity: 80%   Direction: 310°NW
Pressure: 30.17"   Gusts: 16mph
Location:  43.1048°N, 74.7138°W
Report Text: KNY0 200215Z AUTO 31005G14KT 10SM BKN014 M06/M09 A3017 RMK AO2 T10611091
Loading
Personal Weather Stations






























Interactive Weather Map New forecast layout! Learn more

10-Day Weather Forecast

Advertisements
Track Severe Weather on mobile